Time;durP1;ratioP1;P1;durP2;ratioP2;P2;SDS_P1;SDS_P2;PMS_P1;PMS_P2;Temp;Humidity;BMP_temperature;BMP_pressure;BME280_temperature;BME280_humidity;BME280_pressure;Samples;Min_cycle;Max_cycle;Signal;HPM_P1;HPM_P2
2022/03/28 00:00:21;;;;;;;6.72;0.70;;;-2.70;99.90;;;;;;5031216;28;20049;-72
2022/03/28 00:02:49;;;;;;;4.15;1.00;;;-2.80;99.90;;;;;;5031986;28;20462;-73
2022/03/28 00:05:16;;;;;;;4.72;1.00;;;-2.80;99.90;;;;;;5029478;28;20072;-71
2022/03/28 00:07:45;;;;;;;1.42;0.70;;;-2.90;99.90;;;;;;5027852;28;20053;-72
2022/03/28 00:10:15;;;;;;;2.30;0.93;;;-2.90;99.90;;;;;;4995058;28;20522;-72
2022/03/28 00:12:43;;;;;;;2.15;0.63;;;-3.00;99.90;;;;;;5013907;28;20053;-70
2022/03/28 00:15:12;;;;;;;4.05;0.98;;;-3.00;99.90;;;;;;5030189;28;20099;-72
2022/03/28 00:17:40;;;;;;;0.70;0.47;;;-3.10;99.90;;;;;;5027156;28;21029;-72
2022/03/28 00:20:11;;;;;;;4.88;0.70;;;-3.10;99.90;;;;;;5029868;28;20046;-71
2022/03/28 00:22:39;;;;;;;4.32;0.80;;;-3.20;99.90;;;;;;5032315;28;20056;-72
2022/03/28 00:25:09;;;;;;;3.67;1.13;;;-3.10;99.90;;;;;;5031804;28;20068;-72
2022/03/28 00:27:37;;;;;;;1.50;0.95;;;-3.20;99.90;;;;;;5032161;28;20045;-72
2022/03/28 00:30:06;;;;;;;3.22;1.08;;;-3.20;99.90;;;;;;5012346;28;20068;-72
2022/03/28 00:32:35;;;;;;;5.15;1.00;;;-3.10;99.90;;;;;;5032014;28;20061;-71
2022/03/28 00:35:04;;;;;;;6.07;1.05;;;-3.10;99.90;;;;;;5029421;28;20048;-71
2022/03/28 00:37:31;;;;;;;3.33;0.88;;;-3.10;99.90;;;;;;5030788;28;20132;-72
2022/03/28 00:39:59;;;;;;;2.15;1.23;;;-3.10;99.90;;;;;;5031926;28;20041;-71
2022/03/28 00:42:27;;;;;;;2.17;1.25;;;-3.10;99.90;;;;;;5029611;28;20136;-72
2022/03/28 00:44:54;;;;;;;2.47;1.15;;;-3.20;99.90;;;;;;5029642;28;20075;-71
2022/03/28 00:47:22;;;;;;;1.17;0.77;;;-3.20;99.90;;;;;;5032205;28;20111;-71
2022/03/28 00:49:51;;;;;;;3.90;1.52;;;-3.20;99.90;;;;;;5030524;28;20123;-71
2022/03/28 00:52:19;;;;;;;3.05;0.90;;;-3.20;99.90;;;;;;5028741;28;20061;-71
2022/03/28 03:16:26;;;;;;;4.45;0.90;;;-3.50;99.90;;;;;;4961651;28;20089;-70
2022/03/28 03:25:18;;;;;;;2.00;0.90;;;-3.50;99.90;;;;;;4874722;29;20056;-71
2022/03/28 03:36:55;;;;;;;1.15;1.00;;;-3.50;99.90;;;;;;4958277;28;20063;-70
2022/03/28 03:39:56;;;;;;;2.28;0.93;;;-3.50;99.90;;;;;;4935978;29;20056;-75
2022/03/28 03:42:58;;;;;;;1.48;1.25;;;-3.40;99.90;;;;;;4947877;28;20472;-76
2022/03/28 03:45:27;;;;;;;0.90;0.80;;;-3.40;99.90;;;;;;4953348;29;20059;-75
2022/03/28 03:47:55;;;;;;;1.75;0.93;;;-3.40;99.90;;;;;;4969395;28;20078;-75
2022/03/28 03:50:22;;;;;;;5.05;0.65;;;-3.30;99.90;;;;;;4955215;28;20516;-75
2022/03/28 03:52:51;;;;;;;1.88;0.88;;;-3.30;99.90;;;;;;4972278;28;20106;-76
2022/03/28 03:55:19;;;;;;;2.90;0.90;;;-3.30;99.90;;;;;;4966617;28;20142;-76
2022/03/28 03:57:47;;;;;;;6.43;0.90;;;-3.30;99.90;;;;;;4966028;28;20055;-76
2022/03/28 04:00:17;;;;;;;1.55;0.77;;;-3.30;99.90;;;;;;4968256;28;20063;-76
2022/03/28 04:02:44;;;;;;;1.15;1.00;;;-3.30;99.90;;;;;;4970840;28;20054;-76
2022/03/28 04:05:12;;;;;;;2.25;1.00;;;-3.30;99.90;;;;;;4971147;28;20070;-76
2022/03/28 04:07:40;;;;;;;3.22;1.58;;;-3.20;99.90;;;;;;4965768;28;20137;-76
2022/03/28 04:10:10;;;;;;;4.28;1.17;;;-3.20;99.90;;;;;;4955642;28;20056;-76
2022/03/28 04:12:38;;;;;;;1.05;0.80;;;-3.20;99.90;;;;;;4956521;28;20538;-76
2022/03/28 04:15:07;;;;;;;3.58;1.30;;;-3.20;99.90;;;;;;4962623;28;20059;-75
2022/03/28 04:17:42;;;;;;;4.70;0.93;;;-3.20;99.90;;;;;;4952447;28;20198;-77
2022/03/28 04:20:12;;;;;;;2.35;0.95;;;-3.20;99.90;;;;;;4954208;28;20059;-75
2022/03/28 04:22:40;;;;;;;6.43;0.95;;;-3.10;99.90;;;;;;4954216;28;20066;-76
2022/03/28 04:25:10;;;;;;;1.45;0.93;;;-3.10;99.90;;;;;;4973295;28;20054;-75
2022/03/28 04:27:38;;;;;;;9.40;2.45;;;-3.00;99.90;;;;;;4951683;28;20055;-75
2022/03/28 04:30:08;;;;;;;3.90;0.98;;;-3.00;99.90;;;;;;4964747;28;20150;-75
2022/03/28 04:32:37;;;;;;;2.65;0.90;;;-3.00;99.90;;;;;;4947349;28;20150;-77
2022/03/28 04:35:07;;;;;;;0.68;0.68;;;-3.00;99.90;;;;;;4945304;29;20436;-77
2022/03/28 04:37:35;;;;;;;1.35;0.80;;;-2.90;99.90;;;;;;4967458;28;20533;-76
2022/03/28 04:40:06;;;;;;;4.25;0.80;;;-2.90;99.90;;;;;;4972149;28;20069;-76
2022/03/28 04:42:44;;;;;;;2.75;0.77;;;-2.90;99.90;;;;;;4973598;28;20113;-75
2022/03/28 04:45:11;;;;;;;3.55;1.00;;;-2.80;99.90;;;;;;4936788;28;20432;-75
2022/03/28 04:47:39;;;;;;;2.08;0.90;;;-2.80;99.90;;;;;;4967632;28;20050;-74
2022/03/28 04:50:08;;;;;;;0.68;0.65;;;-2.70;99.90;;;;;;4955968;28;20448;-76
2022/03/28 04:52:37;;;;;;;3.17;0.80;;;-2.70;99.90;;;;;;4985765;28;20082;-75
2022/03/28 04:55:06;;;;;;;4.05;1.00;;;-2.70;99.90;;;;;;4953926;28;20075;-75
2022/03/28 04:57:34;;;;;;;2.67;1.23;;;-2.70;99.90;;;;;;4952516;29;20059;-75
2022/03/28 05:00:04;;;;;;;1.25;0.80;;;-2.60;99.90;;;;;;4934011;29;20146;-74
2022/03/28 05:02:31;;;;;;;2.22;1.02;;;-2.60;99.90;;;;;;4951009;28;20575;-76
2022/03/28 05:04:59;;;;;;;2.55;1.27;;;-2.60;99.90;;;;;;4951268;28;20114;-74
2022/03/28 05:07:27;;;;;;;2.40;1.00;;;-2.50;99.90;;;;;;4948019;29;20401;-75
2022/03/28 05:09:55;;;;;;;1.00;0.90;;;-2.40;99.90;;;;;;4953896;28;20079;-75
2022/03/28 05:12:23;;;;;;;2.42;1.00;;;-2.40;99.90;;;;;;4947621;28;20662;-74
2022/03/28 05:14:51;;;;;;;1.10;1.00;;;-2.30;99.90;;;;;;4941495;29;20480;-74
2022/03/28 05:17:23;;;;;;;1.90;0.88;;;-2.20;99.90;;;;;;4947894;29;20146;-76
2022/03/28 05:19:50;;;;;;;9.00;1.25;;;-2.20;99.90;;;;;;4945319;29;20055;-75
2022/03/28 05:22:17;;;;;;;3.25;1.23;;;-2.20;99.90;;;;;;4933656;29;20164;-75
2022/03/28 05:24:46;;;;;;;1.50;0.80;;;-2.10;99.90;;;;;;4951223;29;20106;-74
2022/03/28 05:27:15;;;;;;;1.45;1.15;;;-2.10;99.90;;;;;;4967547;28;20459;-69
2022/03/28 05:29:42;;;;;;;1.08;0.98;;;-2.00;99.90;;;;;;4951281;28;20058;-70
2022/03/28 05:32:10;;;;;;;4.10;1.00;;;-2.00;99.90;;;;;;4951002;28;20142;-70
2022/03/28 05:34:40;;;;;;;1.25;0.95;;;-1.90;99.90;;;;;;4952030;29;20059;-70
2022/03/28 05:37:11;;;;;;;2.13;1.02;;;-1.90;99.90;;;;;;4950396;29;20472;-70
2022/03/28 05:39:39;;;;;;;1.42;1.02;;;-1.80;99.90;;;;;;4951049;29;20464;-70
2022/03/28 05:42:08;;;;;;;1.10;1.00;;;-1.80;99.90;;;;;;4950512;28;20047;-70
2022/03/28 05:44:36;;;;;;;4.28;1.65;;;-1.80;99.90;;;;;;4952742;28;20089;-70
2022/03/28 05:47:04;;;;;;;3.17;1.60;;;-1.70;99.90;;;;;;4951291;28;20563;-70
2022/03/28 05:49:31;;;;;;;2.55;1.40;;;-1.60;99.90;;;;;;4952634;29;20055;-76
2022/03/28 05:52:01;;;;;;;2.38;1.50;;;-1.50;99.90;;;;;;4950850;28;20097;-74
2022/03/28 05:54:29;;;;;;;3.03;1.30;;;-1.50;99.90;;;;;;4959890;28;20154;-75
2022/03/28 05:56:56;;;;;;;3.78;1.67;;;-1.30;99.90;;;;;;4934490;29;20056;-75
2022/03/28 05:59:24;;;;;;;2.28;1.42;;;-1.30;99.90;;;;;;4944244;28;20079;-77
2022/03/28 06:01:51;;;;;;;2.72;1.27;;;-1.20;99.90;;;;;;4966625;28;20541;-75
2022/03/28 06:04:20;;;;;;;4.00;2.20;;;-1.10;99.90;;;;;;4951996;29;20153;-70
2022/03/28 06:06:48;;;;;;;1.83;1.40;;;-1.00;99.90;;;;;;4951523;29;20055;-76
2022/03/28 06:09:18;;;;;;;5.55;1.83;;;-0.90;99.90;;;;;;4949120;29;20057;-76
2022/03/28 06:11:45;;;;;;;9.82;2.80;;;-0.80;99.90;;;;;;4932642;29;20546;-72
2022/03/28 06:14:13;;;;;;;3.75;1.70;;;-0.80;99.90;;;;;;4932341;29;20146;-72
2022/03/28 06:16:41;;;;;;;2.85;1.83;;;-0.70;99.90;;;;;;4937452;29;20052;-78
2022/03/28 06:19:11;;;;;;;2.67;2.00;;;-0.60;99.90;;;;;;4963651;28;20059;-72
2022/03/28 06:21:38;;;;;;;2.63;1.77;;;-0.50;99.90;;;;;;4936464;29;20056;-72
2022/03/28 06:24:08;;;;;;;3.22;1.85;;;-0.40;99.90;;;;;;4946556;29;20062;-79
2022/03/28 06:26:38;;;;;;;3.63;2.35;;;-0.20;99.90;;;;;;4971782;28;20051;-72
2022/03/28 06:29:05;;;;;;;3.80;2.33;;;-0.10;99.90;;;;;;4953109;29;20154;-77
2022/03/28 06:31:33;;;;;;;4.00;2.67;;;0.10;99.90;;;;;;4953675;28;20051;-77
2022/03/28 06:34:02;;;;;;;3.65;2.40;;;0.30;99.90;;;;;;4953638;29;20114;-77
2022/03/28 06:36:31;;;;;;;9.45;4.38;;;0.40;99.90;;;;;;4963872;28;20476;-76
2022/03/28 06:39:00;;;;;;;5.75;2.80;;;0.60;99.90;;;;;;4955703;28;20083;-71
2022/03/28 06:41:27;;;;;;;13.23;3.13;;;0.70;99.90;;;;;;4954088;29;20456;-71
2022/03/28 06:44:00;;;;;;;5.00;3.30;;;0.80;99.90;;;;;;4955190;29;20103;-77
2022/03/28 06:46:27;;;;;;;5.38;3.55;;;0.80;99.90;;;;;;4953026;29;20059;-74
2022/03/28 06:48:57;;;;;;;9.05;4.30;;;0.90;99.90;;;;;;4956037;28;20055;-75
2022/03/28 06:51:27;;;;;;;12.07;4.35;;;1.00;99.90;;;;;;4970568;28;20142;-76
2022/03/28 06:53:55;;;;;;;8.48;4.22;;;1.10;99.90;;;;;;4955367;28;20083;-75
2022/03/28 06:56:22;;;;;;;7.00;3.78;;;1.20;99.90;;;;;;4947963;29;20043;-75
2022/03/28 06:58:50;;;;;;;9.40;4.60;;;1.30;99.90;;;;;;4953813;29;20074;-70
2022/03/28 07:01:19;;;;;;;13.43;5.88;;;1.40;99.90;;;;;;4946340;28;20059;-75
2022/03/28 07:03:46;;;;;;;15.95;6.05;;;1.40;99.90;;;;;;4954531;28;20046;-71
2022/03/28 07:06:14;;;;;;;20.08;7.03;;;1.40;99.90;;;;;;4946615;29;20640;-77
2022/03/28 07:08:41;;;;;;;15.55;6.45;;;1.50;99.90;;;;;;4947619;29;20051;-71
2022/03/28 07:11:08;;;;;;;23.58;7.63;;;1.60;99.90;;;;;;4952750;28;20058;-70
2022/03/28 07:13:36;;;;;;;26.70;7.50;;;1.70;99.90;;;;;;4952881;29;20062;-71
2022/03/28 07:16:04;;;;;;;18.08;7.50;;;1.80;99.90;;;;;;4950179;28;20476;-70
2022/03/28 07:18:32;;;;;;;14.07;7.07;;;1.90;99.90;;;;;;4942504;29;20402;-70
2022/03/28 07:21:00;;;;;;;12.88;5.45;;;2.00;99.90;;;;;;4922811;28;20080;-77
2022/03/28 07:23:27;;;;;;;12.38;5.07;;;2.10;99.90;;;;;;4949993;28;20291;-77
2022/03/28 07:25:56;;;;;;;13.27;3.40;;;2.20;99.90;;;;;;4944539;29;20180;-70
2022/03/28 07:28:23;;;;;;;12.20;2.55;;;2.40;99.90;;;;;;4942943;29;20056;-78
2022/03/28 07:30:51;;;;;;;6.72;2.30;;;2.50;99.90;;;;;;4946919;28;20053;-76
2022/03/28 07:33:19;;;;;;;5.32;2.35;;;2.80;99.90;;;;;;4945545;29;20054;-76
2022/03/28 07:35:48;;;;;;;6.28;1.98;;;3.00;99.90;;;;;;4941707;29;20115;-75
2022/03/28 07:38:15;;;;;;;7.47;1.70;;;3.20;99.90;;;;;;4941895;28;20051;-76
2022/03/28 07:40:43;;;;;;;8.60;1.92;;;3.30;99.90;;;;;;4953117;28;20137;-70
2022/03/28 07:43:11;;;;;;;7.05;1.95;;;3.40;99.90;;;;;;4952203;29;20062;-71
2022/03/28 07:45:38;;;;;;;6.55;2.17;;;3.40;99.90;;;;;;4942842;29;20055;-72
2022/03/28 07:48:06;;;;;;;3.72;1.42;;;3.60;99.90;;;;;;4942079;29;20066;-71
2022/03/28 07:50:36;;;;;;;7.55;1.58;;;3.70;99.90;;;;;;4926896;29;20576;-71
2022/03/28 07:53:15;;;;;;;2.95;1.50;;;3.90;99.90;;;;;;4950726;28;20055;-70
2022/03/28 07:55:43;;;;;;;3.88;1.30;;;4.00;99.90;;;;;;4958033;28;20055;-71
2022/03/28 07:58:12;;;;;;;8.60;1.67;;;4.10;99.90;;;;;;4953893;28;20233;-71
2022/03/28 08:00:40;;;;;;;3.90;1.65;;;4.20;99.90;;;;;;4952486;28;20110;-72
2022/03/28 08:03:08;;;;;;;6.63;2.50;;;4.40;99.90;;;;;;4948766;29;20520;-73
2022/03/28 08:05:35;;;;;;;3.20;1.75;;;4.60;99.90;;;;;;4951764;28;20055;-71
2022/03/28 08:08:03;;;;;;;5.72;2.33;;;4.70;99.90;;;;;;4933324;29;20431;-77
2022/03/28 08:10:31;;;;;;;4.72;1.70;;;5.00;99.90;;;;;;4944432;29;20047;-77
2022/03/28 08:12:58;;;;;;;1.77;1.27;;;5.40;99.90;;;;;;4953342;28;20066;-77
2022/03/28 08:15:26;;;;;;;6.10;1.98;;;5.70;99.90;;;;;;4951629;28;20542;-77
2022/03/28 08:17:53;;;;;;;6.13;1.90;;;5.80;99.90;;;;;;4952507;29;20508;-78
2022/03/28 08:20:21;;;;;;;6.38;1.88;;;6.00;99.90;;;;;;4951051;29;20055;-77
2022/03/28 08:22:54;;;;;;;5.35;1.90;;;6.00;99.90;;;;;;4952264;28;20059;-77
2022/03/28 08:25:24;;;;;;;5.25;2.05;;;5.80;99.90;;;;;;4946952;28;20057;-71
2022/03/28 08:27:52;;;;;;;7.90;1.45;;;5.60;99.90;;;;;;4943228;29;20428;-78
2022/03/28 08:30:24;;;;;;;8.85;1.98;;;5.40;99.90;;;;;;4950149;28;20055;-74
2022/03/28 08:32:52;;;;;;;5.50;2.05;;;5.10;99.90;;;;;;4950840;28;20095;-77
2022/03/28 08:35:19;;;;;;;5.82;1.65;;;4.90;99.90;;;;;;4953776;28;20059;-78
2022/03/28 08:37:47;;;;;;;6.60;1.90;;;4.80;99.90;;;;;;4952759;28;20063;-70
2022/03/28 08:40:15;;;;;;;4.30;1.80;;;4.80;99.90;;;;;;4946660;28;20091;-77
2022/03/28 08:42:43;;;;;;;4.10;1.65;;;4.80;99.90;;;;;;4952693;28;20094;-77
2022/03/28 08:45:15;;;;;;;7.10;1.73;;;4.60;99.90;;;;;;4953801;28;20078;-71
2022/03/28 08:47:45;;;;;;;8.80;2.22;;;4.60;99.90;;;;;;4935237;29;20535;-71
2022/03/28 08:50:14;;;;;;;8.80;1.98;;;4.50;99.90;;;;;;4947464;29;20057;-70
2022/03/28 08:52:42;;;;;;;4.22;1.92;;;4.50;99.90;;;;;;4930688;29;20500;-71
2022/03/28 08:55:12;;;;;;;8.05;2.70;;;4.60;99.90;;;;;;4944297;29;20059;-72
2022/03/28 08:57:40;;;;;;;6.97;1.98;;;4.70;99.90;;;;;;4949458;29;20543;-71
2022/03/28 09:00:11;;;;;;;6.78;2.22;;;4.70;99.90;;;;;;4952746;28;20461;-70
2022/03/28 09:02:46;;;;;;;7.88;2.30;;;4.90;99.90;;;;;;4949829;28;20496;-71
2022/03/28 09:05:15;;;;;;;4.70;1.73;;;4.90;99.90;;;;;;4945656;29;20464;-72
2022/03/28 09:07:43;;;;;;;4.63;1.35;;;5.10;99.90;;;;;;4948337;29;20428;-71
2022/03/28 09:10:15;;;;;;;1.45;1.30;;;5.20;99.90;;;;;;4948304;28;20055;-70
2022/03/28 09:13:04;;;;;;;9.50;2.53;;;5.30;99.90;;;;;;4949193;28;20417;-78
2022/03/28 09:15:48;;;;;;;1.95;1.20;;;5.50;99.90;;;;;;4945619;29;20055;-79
2022/03/28 09:18:31;;;;;;;1.70;1.40;;;5.70;99.90;;;;;;4927633;29;20051;-79
2022/03/28 09:21:08;;;;;;;3.78;0.95;;;5.60;99.90;;;;;;4947933;29;20524;-73
2022/03/28 09:23:39;;;;;;;5.10;1.40;;;5.70;99.90;;;;;;4946171;29;20483;-72
2022/03/28 09:26:10;;;;;;;3.03;1.15;;;5.80;99.90;;;;;;4944312;29;20520;-74
2022/03/28 09:28:49;;;;;;;7.82;1.83;;;6.00;99.90;;;;;;4948569;29;20460;-73
2022/03/28 09:31:21;;;;;;;3.47;1.27;;;6.20;99.90;;;;;;4945799;28;20059;-78
2022/03/28 09:33:59;;;;;;;5.40;1.23;;;6.30;99.90;;;;;;4949094;28;20071;-79
2022/03/28 09:36:48;;;;;;;4.78;2.00;;;6.50;99.90;;;;;;4959072;28;20090;-78
2022/03/28 09:39:19;;;;;;;4.57;1.20;;;6.70;99.90;;;;;;4944238;29;20522;-74
2022/03/28 09:42:00;;;;;;;4.03;1.13;;;6.70;99.90;;;;;;4951291;29;20071;-74
2022/03/28 09:44:39;;;;;;;6.30;1.50;;;6.90;99.90;;;;;;4943971;29;20122;-79
2022/03/28 09:47:10;;;;;;;2.92;1.30;;;6.70;99.90;;;;;;4945998;28;20140;-80
2022/03/28 09:49:41;;;;;;;5.88;1.27;;;6.70;99.90;;;;;;4948296;28;20063;-78
2022/03/28 09:52:13;;;;;;;8.70;1.90;;;7.00;99.90;;;;;;4942696;28;20051;-78
2022/03/28 09:54:49;;;;;;;1.67;1.00;;;7.10;99.90;;;;;;4946712;29;20086;-79
2022/03/28 09:57:31;;;;;;;4.57;0.95;;;6.80;99.90;;;;;;4961016;28;20499;-76
2022/03/28 10:00:10;;;;;;;3.70;1.30;;;6.40;99.90;;;;;;4941253;28;20055;-75
2022/03/28 10:02:38;;;;;;;3.13;1.60;;;6.00;99.90;;;;;;4946422;28;20404;-77
2022/03/28 10:05:08;;;;;;;4.45;1.40;;;5.50;99.90;;;;;;4948310;28;20464;-76
2022/03/28 10:07:36;;;;;;;4.97;1.90;;;5.20;99.90;;;;;;4947427;28;20055;-78
2022/03/28 10:10:07;;;;;;;2.45;1.60;;;5.10;99.90;;;;;;4945491;28;20055;-78
2022/03/28 10:12:36;;;;;;;2.97;1.40;;;5.20;99.90;;;;;;4942176;29;20130;-77
2022/03/28 10:15:09;;;;;;;5.32;1.65;;;6.10;99.90;;;;;;4942604;29;20326;-77
2022/03/28 10:17:39;;;;;;;13.93;3.08;;;7.50;99.90;;;;;;4945824;29;20586;-72
2022/03/28 10:20:12;;;;;;;5.82;1.27;;;8.30;99.90;;;;;;4945617;29;20071;-76
2022/03/28 10:22:42;;;;;;;;;;;8.30;99.90;;;;;;4945677;28;20073;-74
2022/03/28 10:25:21;;;;;;;1.65;1.00;;;8.00;99.90;;;;;;4947737;28;20474;-72
2022/03/28 10:27:58;;;;;;;3.88;1.40;;;7.60;99.90;;;;;;4945727;28;20588;-73
2022/03/28 10:30:30;;;;;;;4.43;1.48;;;8.00;99.90;;;;;;4940885;28;20052;-73
2022/03/28 10:33:14;;;;;;;4.78;1.48;;;9.40;99.90;;;;;;4966230;28;20059;-75
2022/03/28 10:35:57;;;;;;;4.75;1.10;;;10.80;99.90;;;;;;4949093;29;20055;-80
2022/03/28 10:38:26;;;;;;;3.65;1.13;;;12.10;99.90;;;;;;4950659;29;20059;-78
2022/03/28 10:40:58;;;;;;;5.20;1.38;;;12.80;99.90;;;;;;4932476;29;20385;-79
2022/03/28 10:43:28;;;;;;;4.13;1.40;;;13.20;95.90;;;;;;4943624;29;20075;-77
2022/03/28 10:45:58;;;;;;;4.65;1.30;;;13.00;96.60;;;;;;4949806;29;20331;-77
2022/03/28 10:48:37;;;;;;;1.55;0.90;;;13.00;96.10;;;;;;4950340;28;20409;-79
2022/03/28 10:51:09;;;;;;;4.07;1.52;;;13.10;95.60;;;;;;4948451;29;20504;-74
2022/03/28 10:53:40;;;;;;;4.22;1.73;;;13.90;90.90;;;;;;4946405;29;20420;-74
2022/03/28 10:56:14;;;;;;;3.90;1.10;;;14.20;89.00;;;;;;4946786;28;20063;-74
2022/03/28 10:58:45;;;;;;;2.38;1.52;;;14.50;85.00;;;;;;4923237;29;20055;-74
2022/03/28 11:01:35;;;;;;;5.97;1.05;;;14.30;82.00;;;;;;4961200;28;20142;-74
2022/03/28 11:04:07;;;;;;;2.92;0.98;;;14.10;81.70;;;;;;4933552;29;20409;-79
2022/03/28 11:07:03;;;;;;;1.73;0.90;;;14.40;80.50;;;;;;4948419;28;20051;-77
2022/03/28 11:09:43;;;;;;;6.30;1.25;;;14.30;79.20;;;;;;4949620;29;20129;-75
2022/03/28 11:12:13;;;;;;;1.88;0.65;;;14.30;77.20;;;;;;4949393;29;20051;-75
2022/03/28 11:14:56;;;;;;;2.95;1.10;;;14.30;75.60;;;;;;4954943;29;20158;-76
2022/03/28 11:17:37;;;;;;;2.88;1.25;;;14.30;75.40;;;;;;4948472;28;20195;-74
2022/03/28 11:20:14;;;;;;;2.95;1.35;;;14.80;73.10;;;;;;4949861;29;20102;-77
2022/03/28 11:22:51;;;;;;;2.33;1.20;;;15.10;72.30;;;;;;4948066;28;20575;-72
2022/03/28 11:25:38;;;;;;;3.40;1.40;;;15.60;68.00;;;;;;4936911;29;20110;-79
2022/03/28 11:28:12;;;;;;;1.60;0.60;;;16.20;65.60;;;;;;4943956;29;20051;-80
2022/03/28 11:30:55;;;;;;;2.05;0.80;;;16.70;63.40;;;;;;4933674;29;20165;-78
2022/03/28 11:33:27;;;;;;;;;;;16.80;59.90;;;;;;4945684;29;20440;-79
2022/03/28 11:35:57;;;;;;;2.78;0.80;;;15.70;63.20;;;;;;4950118;29;19926;-81
2022/03/28 11:38:30;;;;;;;2.85;0.90;;;16.10;63.50;;;;;;4953702;28;20106;-76
2022/03/28 11:40:59;;;;;;;3.97;0.85;;;17.10;60.70;;;;;;4952915;29;20516;-79
2022/03/28 11:43:34;;;;;;;3.53;1.08;;;17.50;58.70;;;;;;4952001;29;20059;-77
2022/03/28 11:46:13;;;;;;;1.83;1.10;;;16.40;59.60;;;;;;4950239;29;20051;-78
2022/03/28 11:48:56;;;;;;;2.40;1.23;;;15.40;61.60;;;;;;4952000;29;20066;-79
2022/03/28 11:51:25;;;;;;;3.15;1.27;;;15.40;63.10;;;;;;4951953;28;20055;-80
2022/03/28 11:53:59;;;;;;;5.57;1.10;;;15.10;63.50;;;;;;4948379;29;20066;-78
2022/03/28 11:56:29;;;;;;;1.95;0.77;;;14.90;64.20;;;;;;4950508;28;20065;-78
2022/03/28 11:59:02;;;;;;;4.80;0.75;;;14.90;64.90;;;;;;4948951;29;20058;-78
2022/03/28 12:01:31;;;;;;;2.35;0.90;;;15.40;64.50;;;;;;4962674;28;20520;-78
2022/03/28 12:03:59;;;;;;;0.98;0.50;;;16.00;62.50;;;;;;4947828;29;20586;-79
2022/03/28 12:06:30;;;;;;;1.15;0.60;;;16.80;59.60;;;;;;4949082;29;20393;-78
2022/03/28 12:09:00;;;;;;;2.03;0.82;;;17.20;59.20;;;;;;4949723;28;20077;-80
2022/03/28 12:11:34;;;;;;;1.30;0.90;;;17.90;56.40;;;;;;4951661;28;20552;-71
2022/03/28 12:14:33;;;;;;;1.45;0.70;;;16.80;57.20;;;;;;4965428;28;20117;-78
2022/03/28 12:17:00;;;;;;;2.08;0.63;;;14.80;61.30;;;;;;4963403;28;20059;-79
2022/03/28 12:19:30;;;;;;;1.65;0.82;;;13.90;65.00;;;;;;4951527;29;20055;-82
2022/03/28 12:22:13;;;;;;;2.30;0.75;;;12.90;69.50;;;;;;4951353;28;20062;-77
2022/03/28 12:24:51;;;;;;;;;;;13.00;71.50;;;;;;4944258;29;20071;-73
2022/03/28 12:27:20;;;;;;;2.08;0.70;;;11.90;74.50;;;;;;4947156;28;19954;-71
2022/03/28 12:29:47;;;;;;;3.28;0.95;;;10.60;88.90;;;;;;4947607;29;20078;-70
2022/03/28 12:32:19;;;;;;;2.45;0.80;;;9.70;97.20;;;;;;4930629;29;20062;-72
2022/03/28 12:34:55;;;;;;;2.58;1.65;;;9.40;99.90;;;;;;4945130;29;20520;-73
2022/03/28 12:37:26;;;;;;;3.58;1.23;;;9.10;99.90;;;;;;4951571;28;20051;-72
2022/03/28 12:40:00;;;;;;;6.15;1.75;;;8.70;99.90;;;;;;4941624;29;20547;-72
2022/03/28 12:42:29;;;;;;;3.38;2.60;;;8.30;99.90;;;;;;4925494;29;20065;-72
2022/03/28 12:44:57;;;;;;;2.95;2.42;;;7.90;99.90;;;;;;4942754;28;20433;-71
2022/03/28 12:47:31;;;;;;;6.72;2.13;;;7.60;99.90;;;;;;4931150;29;20059;-71
2022/03/28 12:50:01;;;;;;;7.75;2.95;;;7.30;99.90;;;;;;4944050;28;20077;-71
2022/03/28 12:52:32;;;;;;;3.67;2.45;;;7.10;99.90;;;;;;4947420;28;20055;-72
2022/03/28 12:55:02;;;;;;;4.65;2.60;;;7.00;99.90;;;;;;4957401;28;20061;-70
2022/03/28 12:57:36;;;;;;;4.55;2.17;;;6.90;99.90;;;;;;4932885;29;20059;-71
2022/03/28 13:00:05;;;;;;;5.60;2.97;;;6.60;99.90;;;;;;4977330;28;20141;-70
2022/03/28 13:02:33;;;;;;;10.63;3.03;;;6.40;99.90;;;;;;4948458;29;20063;-70
2022/03/28 13:05:01;;;;;;;4.13;2.17;;;6.40;99.90;;;;;;4949329;29;20126;-71
2022/03/28 13:07:34;;;;;;;4.40;1.10;;;6.20;99.90;;;;;;4964683;28;20150;-73
2022/03/28 13:10:09;;;;;;;2.65;1.23;;;6.20;99.90;;;;;;4964878;28;20547;-72
2022/03/28 13:12:41;;;;;;;1.35;0.50;;;6.00;99.90;;;;;;4959549;28;20055;-72
2022/03/28 13:15:18;;;;;;;2.70;1.15;;;6.10;99.90;;;;;;4950406;28;20055;-72
2022/03/28 13:17:48;;;;;;;2.45;0.60;;;6.30;99.90;;;;;;4952931;28;20058;-72
2022/03/28 13:20:20;;;;;;;3.55;0.85;;;6.30;99.90;;;;;;4952494;28;20464;-78
2022/03/28 13:22:50;;;;;;;3.67;0.77;;;6.20;99.90;;;;;;4952196;28;20073;-77
2022/03/28 13:25:21;;;;;;;2.58;0.60;;;6.10;99.90;;;;;;4951398;28;20095;-72
2022/03/28 13:28:06;;;;;;;1.83;0.60;;;5.90;99.90;;;;;;4968802;28;20067;-71
2022/03/28 13:30:36;;;;;;;5.93;1.60;;;5.70;99.90;;;;;;4958678;28;20069;-72
2022/03/28 13:33:05;;;;;;;3.97;1.00;;;5.70;99.90;;;;;;4960532;28;20090;-76
2022/03/28 13:35:34;;;;;;;2.67;0.60;;;5.60;99.90;;;;;;4943047;29;20055;-77
2022/03/28 13:38:06;;;;;;;2.13;0.68;;;5.40;99.90;;;;;;4950062;28;20070;-76
2022/03/28 13:40:36;;;;;;;5.93;1.00;;;5.20;99.90;;;;;;4950749;28;20178;-75
2022/03/28 13:43:05;;;;;;;3.38;0.80;;;5.10;99.90;;;;;;4965816;28;20059;-76
2022/03/28 13:45:33;;;;;;;3.97;1.25;;;4.90;99.90;;;;;;4950423;29;20059;-77
2022/03/28 13:48:04;;;;;;;5.50;0.85;;;4.80;99.90;;;;;;4951980;28;20055;-69
2022/03/28 13:50:32;;;;;;;2.70;0.60;;;4.80;99.90;;;;;;4949883;28;20051;-70
2022/03/28 13:53:00;;;;;;;3.38;0.75;;;4.60;99.90;;;;;;4951257;29;20519;-70
2022/03/28 13:55:28;;;;;;;2.97;0.80;;;4.60;99.90;;;;;;4951210;28;20058;-70
2022/03/28 13:57:57;;;;;;;3.60;1.75;;;4.40;99.90;;;;;;4956547;28;20055;-70
2022/03/28 14:00:28;;;;;;;2.05;0.80;;;4.30;99.90;;;;;;4951884;28;20431;-70
2022/03/28 14:02:55;;;;;;;4.13;1.50;;;4.20;99.90;;;;;;4949329;29;20047;-69
2022/03/28 14:05:23;;;;;;;3.53;1.38;;;4.00;99.90;;;;;;4952685;28;20051;-70
2022/03/28 14:07:51;;;;;;;4.75;1.65;;;3.90;99.90;;;;;;4947921;28;20500;-69
2022/03/28 14:10:21;;;;;;;3.33;1.23;;;3.90;99.90;;;;;;4949539;29;20461;-73
2022/03/28 14:12:48;;;;;;;13.13;1.58;;;3.90;99.90;;;;;;4949353;29;20066;-70
2022/03/28 14:15:17;;;;;;;2.85;0.70;;;3.80;99.90;;;;;;4950498;28;20106;-70
2022/03/28 14:17:46;;;;;;;3.40;0.65;;;3.80;99.90;;;;;;4952387;28;20503;-70
2022/03/28 14:20:20;;;;;;;0.90;0.43;;;3.70;99.90;;;;;;4953755;28;20055;-71
2022/03/28 14:22:48;;;;;;;1.40;1.00;;;3.70;99.90;;;;;;4950167;28;20431;-71
2022/03/28 14:25:15;;;;;;;2.70;0.50;;;3.70;99.90;;;;;;4947399;28;20146;-70
2022/03/28 14:27:43;;;;;;;2.08;1.20;;;3.60;99.90;;;;;;4950434;28;20224;-69
2022/03/28 14:30:13;;;;;;;2.33;1.00;;;3.50;99.90;;;;;;4964018;28;20121;-70
2022/03/28 14:32:48;;;;;;;1.85;0.70;;;3.50;99.90;;;;;;4949990;28;20559;-69
2022/03/28 14:35:18;;;;;;;2.15;0.80;;;3.50;99.90;;;;;;4952767;28;20527;-73
2022/03/28 14:37:45;;;;;;;7.07;1.17;;;3.40;99.90;;;;;;4953406;28;20070;-71
2022/03/28 14:40:13;;;;;;;3.78;1.00;;;3.40;99.90;;;;;;4954048;29;20047;-70
2022/03/28 14:42:42;;;;;;;2.90;1.02;;;3.50;99.90;;;;;;4935135;29;20062;-70
2022/03/28 14:45:10;;;;;;;1.70;0.90;;;3.60;99.90;;;;;;4950516;28;20526;-71
2022/03/28 14:47:38;;;;;;;2.75;1.30;;;3.60;99.90;;;;;;4952228;29;20059;-71
2022/03/28 14:50:09;;;;;;;4.70;1.80;;;3.60;99.90;;;;;;4953843;28;20456;-71
2022/03/28 14:52:38;;;;;;;6.03;3.63;;;3.50;99.90;;;;;;4952664;28;20539;-71
2022/03/28 14:55:08;;;;;;;3.00;1.30;;;3.50;99.90;;;;;;4955046;28;20106;-78
2022/03/28 14:57:36;;;;;;;3.97;0.85;;;3.50;99.90;;;;;;4952717;28;20051;-78
2022/03/28 15:00:05;;;;;;;4.43;1.25;;;3.50;99.90;;;;;;4952832;28;20071;-75
2022/03/28 15:02:33;;;;;;;3.58;1.30;;;3.40;99.90;;;;;;4954124;29;20511;-77
2022/03/28 15:05:01;;;;;;;3.00;1.73;;;3.40;99.90;;;;;;4952188;29;20066;-76
2022/03/28 15:07:30;;;;;;;6.68;1.17;;;3.40;99.90;;;;;;4954022;29;20051;-76
2022/03/28 15:09:57;;;;;;;3.83;1.40;;;3.50;99.90;;;;;;4953812;29;20411;-77
2022/03/28 15:12:25;;;;;;;2.90;1.05;;;3.70;99.90;;;;;;4953096;29;20051;-76
2022/03/28 15:14:53;;;;;;;1.48;0.82;;;3.70;99.90;;;;;;4952683;28;20058;-70
2022/03/28 15:17:21;;;;;;;3.78;0.95;;;3.70;99.90;;;;;;4925454;29;20552;-76
2022/03/28 15:19:48;;;;;;;1.27;0.52;;;3.70;99.90;;;;;;4933874;29;20595;-72
2022/03/28 15:22:16;;;;;;;6.43;2.78;;;3.60;99.90;;;;;;4929534;29;20059;-71
2022/03/28 15:24:45;;;;;;;1.30;0.60;;;3.50;99.90;;;;;;4963942;28;20142;-71
2022/03/28 15:27:12;;;;;;;0.90;0.57;;;3.40;99.90;;;;;;4953930;29;20063;-69
2022/03/28 15:29:40;;;;;;;0.90;0.45;;;3.30;99.90;;;;;;4953271;28;20657;-78
2022/03/28 15:32:07;;;;;;;2.55;1.00;;;3.30;99.90;;;;;;4954567;28;20059;-76
2022/03/28 15:34:35;;;;;;;9.60;4.43;;;3.30;99.90;;;;;;4951726;28;20567;-75
2022/03/28 15:37:05;;;;;;;1.25;1.20;;;3.30;99.90;;;;;;4955356;28;20059;-75
2022/03/28 15:39:32;;;;;;;2.65;0.93;;;3.20;99.90;;;;;;4950502;29;20114;-70
2022/03/28 15:42:02;;;;;;;1.00;0.60;;;3.20;99.90;;;;;;4951654;29;20055;-69
2022/03/28 15:44:31;;;;;;;3.47;1.55;;;3.10;99.90;;;;;;4951253;28;20051;-70
2022/03/28 15:47:02;;;;;;;1.43;1.10;;;3.10;99.90;;;;;;4952123;28;20129;-70